createdAt,value
2023-01-04T00:01:19.707Z,1.50
2023-01-04T00:03:47.651Z,2.20
2023-01-04T00:06:17.008Z,1.93
2023-01-04T00:08:44.485Z,2.07
2023-01-04T00:11:14.497Z,1.60
2023-01-04T00:13:43.336Z,1.70
2023-01-04T00:16:14.278Z,2.37
2023-01-04T00:18:42.179Z,1.60
2023-01-04T00:21:11.493Z,1.67
2023-01-04T00:23:39.546Z,1.93
2023-01-04T00:26:10.437Z,2.10
2023-01-04T00:28:38.455Z,2.10
2023-01-04T00:31:09.468Z,1.77
2023-01-04T00:33:37.446Z,1.97
2023-01-04T00:36:06.021Z,1.93
2023-01-04T00:38:34.811Z,1.70
2023-01-04T00:41:03.026Z,2.10
2023-01-04T00:43:30.704Z,2.30
2023-01-04T00:45:58.244Z,2.10
2023-01-04T00:48:27.075Z,2.20
2023-01-04T00:50:54.690Z,1.70
2023-01-04T00:53:22.268Z,1.60
2023-01-04T00:55:49.724Z,2.47
2023-01-04T00:58:17.179Z,1.73
2023-01-04T01:00:44.668Z,2.30
2023-01-04T01:03:12.183Z,2.10
2023-01-04T01:05:41.074Z,2.00
2023-01-04T01:08:22.548Z,1.80
2023-01-04T01:10:50.012Z,2.20
2023-01-04T01:13:17.545Z,1.83
2023-01-04T01:15:45.261Z,2.00
2023-01-04T01:18:12.801Z,1.50
2023-01-04T01:20:45.745Z,1.70
2023-01-04T01:23:14.610Z,1.90
2023-01-04T01:25:42.950Z,2.00
2023-01-04T01:28:10.712Z,2.17
2023-01-04T01:30:41.834Z,1.93
2023-01-04T01:33:10.023Z,2.00
2023-01-04T01:35:37.608Z,1.90
2023-01-04T01:38:06.417Z,1.93
2023-01-04T01:40:33.961Z,1.87
2023-01-04T01:43:01.406Z,1.80
2023-01-04T01:45:31.678Z,1.90
2023-01-04T01:48:05.313Z,1.57
2023-01-04T01:50:37.175Z,1.60
2023-01-04T01:53:08.565Z,1.83
2023-01-04T01:55:37.618Z,1.77
2023-01-04T01:58:07.236Z,2.33
2023-01-04T02:00:35.024Z,2.20
2023-01-04T02:03:13.177Z,1.73
2023-01-04T02:05:40.888Z,2.10
2023-01-04T02:08:09.974Z,1.57
2023-01-04T02:10:37.851Z,2.10
2023-01-04T02:13:08.258Z,2.03
2023-01-04T02:15:49.079Z,2.07
2023-01-04T02:18:22.311Z,3.03
2023-01-04T02:20:55.944Z,1.80
2023-01-04T02:23:49.415Z,1.50
2023-01-04T02:26:45.145Z,2.17
2023-01-04T02:29:45.035Z,2.00
2023-01-04T02:32:22.554Z,1.70
2023-01-04T02:34:59.233Z,2.53
2023-01-04T02:37:32.775Z,1.63
2023-01-04T02:40:08.749Z,1.90
2023-01-04T02:43:02.324Z,1.77
2023-01-04T02:45:35.539Z,1.80
2023-01-04T02:48:23.638Z,2.20
2023-01-04T02:50:54.217Z,1.30
2023-01-04T02:53:25.285Z,2.70
2023-01-04T02:56:02.689Z,1.77
2023-01-04T02:58:52.652Z,1.53
2023-01-04T03:02:01.231Z,1.93
2023-01-04T03:05:06.302Z,1.60
2023-01-04T03:07:40.505Z,1.60
2023-01-04T03:10:13.556Z,1.50
2023-01-04T03:12:44.700Z,1.73
2023-01-04T03:15:17.814Z,1.63
2023-01-04T03:17:50.507Z,1.67
2023-01-04T03:20:21.818Z,1.60
2023-01-04T03:23:11.779Z,1.43
2023-01-04T03:25:59.089Z,1.83
2023-01-04T03:28:47.650Z,1.80
2023-01-04T03:31:38.085Z,1.70
2023-01-04T03:34:23.717Z,2.90
2023-01-04T03:36:59.459Z,1.60
2023-01-04T03:39:54.853Z,2.40
2023-01-04T03:42:47.523Z,1.80
2023-01-04T03:45:36.187Z,1.83
2023-01-04T03:48:30.311Z,1.40
2023-01-04T03:51:04.688Z,1.90
2023-01-04T03:53:36.745Z,2.00
2023-01-04T03:56:05.008Z,1.90
2023-01-04T03:58:32.542Z,1.60
2023-01-04T04:01:03.471Z,1.53
2023-01-04T04:03:49.236Z,2.37
2023-01-04T04:06:34.974Z,1.80
2023-01-04T04:09:04.379Z,1.70
2023-01-04T04:11:31.861Z,2.00
2023-01-04T04:14:00.302Z,1.63
2023-01-04T04:16:28.460Z,1.80
2023-01-04T04:18:56.427Z,1.47
2023-01-04T04:21:24.092Z,1.90
2023-01-04T04:23:51.837Z,2.03
2023-01-04T04:26:20.611Z,1.97
2023-01-04T04:28:48.345Z,2.30
2023-01-04T04:31:15.848Z,1.90
2023-01-04T04:33:43.385Z,1.97
2023-01-04T04:36:11.185Z,1.57
2023-01-04T04:38:38.666Z,1.80
2023-01-04T04:41:28.571Z,2.20
2023-01-04T04:43:58.613Z,2.27
2023-01-04T04:46:26.155Z,2.90
2023-01-04T04:48:53.951Z,2.33
2023-01-04T04:51:21.586Z,4.60
2023-01-04T04:53:49.878Z,1.93
2023-01-04T04:56:17.588Z,2.20
2023-01-04T04:58:45.051Z,2.13
2023-01-04T05:01:14.011Z,2.20
2023-01-04T05:03:41.680Z,2.53
2023-01-04T05:06:09.328Z,2.13
2023-01-04T05:08:36.840Z,1.90
2023-01-04T05:11:06.682Z,2.43
2023-01-04T05:13:33.265Z,2.20
2023-01-04T05:16:00.981Z,2.90
2023-01-04T05:18:29.944Z,1.90
2023-01-04T05:20:57.386Z,1.70
2023-01-04T05:23:25.304Z,1.90
2023-01-04T05:25:54.199Z,1.90
2023-01-04T05:28:21.630Z,2.00
2023-01-04T05:30:53.294Z,2.50
2023-01-04T05:33:22.779Z,1.63
2023-01-04T05:35:52.592Z,1.53
2023-01-04T05:38:20.114Z,1.70
2023-01-04T05:40:49.747Z,1.70
2023-01-04T05:43:18.170Z,2.03
2023-01-04T05:45:49.112Z,1.87
2023-01-04T05:48:16.673Z,2.20
2023-01-04T05:50:45.671Z,2.00
2023-01-04T05:53:17.518Z,1.77
2023-01-04T05:55:45.151Z,1.63
2023-01-04T05:58:12.980Z,1.63
2023-01-04T06:00:40.507Z,1.70
2023-01-04T06:03:08.059Z,1.93
2023-01-04T06:05:35.655Z,1.87
2023-01-04T06:08:03.220Z,1.73
2023-01-04T06:10:32.044Z,1.67
2023-01-04T06:12:59.539Z,1.47
2023-01-04T06:15:27.047Z,1.83
2023-01-04T06:17:54.479Z,1.87
2023-01-04T06:20:21.945Z,2.13
2023-01-04T06:22:49.398Z,1.67
2023-01-04T06:25:17.303Z,2.07
2023-01-04T06:27:46.092Z,1.60
2023-01-04T06:30:13.615Z,2.23
2023-01-04T06:32:41.099Z,1.63
2023-01-04T06:35:09.207Z,2.00
2023-01-04T06:37:36.711Z,2.47
2023-01-04T06:40:04.738Z,2.50
2023-01-04T06:42:47.381Z,1.93
2023-01-04T06:45:17.138Z,2.07
2023-01-04T06:47:45.161Z,2.30
2023-01-04T06:50:13.121Z,2.10
2023-01-04T06:52:40.917Z,2.00
2023-01-04T06:55:10.179Z,2.00
2023-01-04T06:57:37.801Z,1.50
2023-01-04T07:00:07.290Z,2.27
2023-01-04T07:02:36.859Z,1.63
2023-01-04T07:05:04.761Z,1.63
2023-01-04T07:07:33.071Z,2.10
2023-01-04T07:10:05.400Z,1.90
2023-01-04T07:12:37.482Z,1.93
2023-01-04T07:15:39.454Z,1.67
2023-01-04T07:17:54.758Z,1.60
2023-01-04T07:20:22.299Z,1.97
2023-01-04T07:22:49.806Z,1.67
2023-01-04T07:25:17.528Z,1.60
2023-01-04T07:27:45.270Z,1.40
2023-01-04T07:30:13.912Z,1.20
2023-01-04T07:32:41.386Z,1.70
2023-01-04T07:35:10.386Z,1.30
2023-01-04T07:37:37.955Z,1.30
2023-01-04T07:40:06.653Z,1.60
2023-01-04T07:42:34.076Z,1.30
2023-01-04T07:45:01.558Z,1.43
2023-01-04T07:47:29.312Z,1.33
2023-01-04T07:49:56.808Z,1.60
2023-01-04T07:52:28.668Z,1.10
2023-01-04T07:54:56.202Z,1.30
2023-01-04T07:57:23.658Z,1.17
2023-01-04T07:59:51.736Z,1.20
2023-01-04T08:02:19.339Z,1.17
2023-01-04T08:04:47.026Z,1.13
2023-01-04T08:07:14.543Z,1.23
2023-01-04T08:09:43.452Z,1.00
2023-01-04T08:12:10.923Z,1.10
2023-01-04T08:14:38.354Z,1.53
2023-01-04T08:17:05.801Z,1.20
2023-01-04T08:19:33.260Z,1.23
2023-01-04T08:22:00.860Z,1.10
2023-01-04T08:24:28.420Z,1.20
2023-01-04T08:26:57.639Z,1.20
2023-01-04T08:29:31.007Z,1.03
2023-01-04T08:32:01.901Z,0.90
2023-01-04T08:34:29.773Z,1.37
2023-01-04T08:36:57.224Z,1.00
2023-01-04T08:39:24.743Z,1.00
2023-01-04T08:41:59.356Z,1.17
2023-01-04T08:44:30.057Z,1.20
2023-01-04T08:46:58.765Z,1.10
2023-01-04T08:49:26.636Z,1.60
2023-01-04T08:51:54.247Z,0.90
2023-01-04T08:54:22.640Z,1.30
2023-01-04T08:56:50.191Z,1.00
2023-01-04T08:59:17.728Z,0.87
2023-01-04T09:01:47.012Z,0.97
2023-01-04T09:04:14.654Z,1.20
2023-01-04T09:06:42.583Z,0.90
2023-01-04T09:09:10.227Z,1.00
2023-01-04T09:11:39.013Z,1.30
2023-01-04T09:14:09.478Z,1.03
2023-01-04T09:16:38.417Z,0.90
2023-01-04T09:19:07.823Z,1.00
2023-01-04T09:21:35.705Z,1.27
2023-01-04T09:24:03.448Z,1.37
2023-01-04T09:26:31.269Z,0.90
2023-01-04T09:28:58.842Z,1.10
2023-01-04T09:31:28.719Z,1.10
2023-01-04T09:34:13.993Z,1.00
2023-01-04T09:36:44.950Z,0.90
2023-01-04T09:39:20.805Z,0.80
2023-01-04T09:41:56.628Z,0.93
2023-01-04T09:45:03.142Z,0.97
2023-01-04T09:47:29.636Z,0.87
2023-01-04T09:50:00.557Z,0.90
2023-01-04T09:52:43.596Z,1.00
2023-01-04T09:55:39.532Z,0.97
2023-01-04T09:58:14.306Z,0.93
2023-01-04T10:00:46.869Z,0.90
2023-01-04T10:03:18.694Z,1.40
2023-01-04T10:05:46.230Z,0.90
2023-01-04T10:08:18.246Z,0.90
2023-01-04T10:10:52.758Z,1.00
2023-01-04T10:13:35.785Z,1.10
2023-01-04T10:16:17.344Z,0.80
2023-01-04T10:19:29.705Z,1.00
2023-01-04T10:21:46.121Z,0.87
2023-01-04T10:24:46.818Z,0.90
2023-01-04T10:27:24.230Z,1.10
2023-01-04T10:30:04.823Z,1.30
2023-01-04T10:32:39.441Z,1.00
2023-01-04T10:35:19.444Z,0.70
2023-01-04T10:37:49.228Z,0.93
2023-01-04T10:40:19.019Z,0.80
2023-01-04T10:42:57.835Z,0.80
2023-01-04T10:45:35.493Z,0.90
2023-01-04T10:48:08.731Z,0.90
2023-01-04T10:50:42.334Z,0.80
2023-01-04T10:53:17.402Z,0.97
2023-01-04T10:56:23.877Z,0.90
2023-01-04T10:58:44.912Z,0.87
2023-01-04T11:01:18.144Z,0.90
2023-01-04T11:03:51.744Z,0.80
2023-01-04T11:06:23.439Z,0.83
2023-01-04T11:08:56.857Z,0.80
2023-01-04T11:11:29.355Z,0.83
2023-01-04T11:13:57.013Z,0.70
2023-01-04T11:16:24.577Z,1.23
2023-01-04T11:18:52.987Z,0.97
2023-01-04T11:21:27.619Z,0.87
2023-01-04T11:24:08.291Z,0.80
2023-01-04T11:26:49.606Z,0.83
2023-01-04T11:29:29.170Z,0.70
2023-01-04T11:32:01.406Z,0.80
2023-01-04T11:34:46.517Z,0.80
2023-01-04T11:37:33.368Z,0.80
2023-01-04T11:40:25.450Z,0.80
2023-01-04T11:43:12.155Z,0.70
2023-01-04T11:45:39.682Z,0.63
2023-01-04T11:48:14.255Z,0.80
2023-01-04T11:50:43.572Z,0.80
2023-01-04T11:53:26.569Z,0.60
2023-01-04T11:56:14.580Z,0.70
2023-01-04T11:58:45.006Z,0.80
2023-01-04T12:01:25.154Z,0.90
2023-01-04T12:03:52.754Z,0.90
2023-01-04T12:06:23.657Z,0.60
2023-01-04T12:08:51.447Z,0.60
2023-01-04T12:11:27.451Z,0.80
2023-01-04T12:13:56.238Z,0.70
2023-01-04T12:16:35.032Z,0.60
2023-01-04T12:19:02.559Z,0.73
2023-01-04T12:21:33.858Z,0.60
2023-01-04T12:24:02.146Z,0.80
2023-01-04T12:26:29.862Z,0.70
2023-01-04T12:29:30.730Z,1.10
2023-01-04T12:32:32.113Z,0.70
2023-01-04T12:35:00.963Z,0.60
2023-01-04T12:37:49.168Z,0.80
2023-01-04T12:40:53.331Z,0.97
2023-01-04T12:43:28.336Z,0.87
2023-01-04T12:46:58.453Z,0.77
2023-01-04T12:49:53.330Z,0.83
2023-01-04T12:53:10.660Z,0.70
2023-01-04T12:55:55.287Z,0.87
2023-01-04T13:02:17.113Z,1.00
2023-01-04T13:04:45.172Z,0.77
2023-01-04T13:07:18.334Z,0.80
2023-01-04T13:09:52.978Z,0.90
2023-01-04T13:12:44.117Z,0.80
2023-01-04T13:15:20.776Z,0.83
2023-01-04T13:17:48.893Z,0.87
2023-01-04T13:20:18.941Z,1.03
2023-01-04T13:22:52.683Z,1.00
2023-01-04T13:25:24.024Z,0.93
2023-01-04T13:28:05.122Z,0.80
2023-01-04T13:30:35.633Z,1.00
2023-01-04T13:33:26.397Z,0.90
2023-01-04T13:36:03.066Z,1.10
2023-01-04T13:38:34.075Z,1.17
2023-01-04T13:41:12.651Z,1.37
2023-01-04T13:43:56.435Z,0.90
2023-01-04T13:46:26.662Z,1.27
2023-01-04T13:49:00.514Z,1.20
2023-01-04T13:51:36.427Z,1.30
2023-01-04T13:54:07.157Z,1.00
2023-01-04T13:56:36.074Z,1.47
2023-01-04T13:59:03.637Z,1.23
2023-01-04T14:01:34.238Z,1.43
2023-01-04T14:04:03.895Z,0.90
2023-01-04T14:06:34.038Z,1.50
2023-01-04T14:09:08.183Z,1.03
2023-01-04T14:12:06.798Z,1.20
2023-01-04T14:14:39.890Z,1.20
2023-01-04T14:17:24.163Z,1.13
2023-01-04T14:19:56.516Z,1.20
2023-01-04T14:22:41.527Z,1.10
2023-01-04T14:25:56.329Z,1.03
2023-01-04T14:28:32.894Z,1.10
2023-01-04T14:31:28.466Z,1.53
2023-01-04T14:33:56.954Z,1.40
2023-01-04T14:36:28.067Z,1.40
2023-01-04T14:39:00.304Z,1.27
2023-01-04T14:41:32.408Z,1.40
2023-01-04T14:44:13.686Z,1.40
2023-01-04T14:46:43.580Z,1.50
2023-01-04T14:49:11.217Z,1.57
2023-01-04T14:51:42.228Z,1.73
2023-01-04T14:54:13.254Z,2.20
2023-01-04T14:56:43.402Z,3.23
2023-01-04T14:59:12.191Z,2.53
2023-01-04T15:01:39.919Z,2.60
2023-01-04T15:04:08.205Z,2.60
2023-01-04T15:06:36.044Z,2.70
2023-01-04T15:09:04.279Z,2.83
2023-01-04T15:11:32.276Z,3.10
2023-01-04T15:13:59.731Z,2.90
2023-01-04T15:16:28.599Z,3.10
2023-01-04T15:18:56.109Z,2.40
2023-01-04T15:21:23.573Z,2.33
2023-01-04T15:23:51.108Z,2.50
2023-01-04T15:26:18.569Z,2.43
2023-01-04T15:28:46.005Z,3.50
2023-01-04T15:31:15.350Z,2.30
2023-01-04T15:33:44.251Z,2.53
2023-01-04T15:36:17.437Z,2.27
2023-01-04T15:38:46.951Z,2.70
2023-01-04T15:41:36.345Z,2.07
2023-01-04T15:44:03.906Z,2.00
2023-01-04T15:46:31.573Z,2.70
2023-01-04T15:49:00.515Z,1.90
2023-01-04T15:51:28.068Z,1.90
2023-01-04T15:53:56.565Z,2.40
2023-01-04T15:56:24.172Z,1.90
2023-01-04T15:58:53.171Z,2.10
2023-01-04T16:01:20.660Z,2.27
2023-01-04T16:03:53.302Z,2.40
2023-01-04T16:06:23.530Z,2.30
2023-01-04T16:08:52.789Z,2.30
2023-01-04T16:11:22.396Z,2.43
2023-01-04T16:13:51.223Z,1.63
2023-01-04T16:16:19.793Z,2.40
2023-01-04T16:18:49.267Z,1.60
2023-01-04T16:21:20.149Z,2.30
2023-01-04T16:23:51.866Z,2.43
2023-01-04T16:26:19.935Z,2.03
2023-01-04T16:28:51.005Z,1.53
2023-01-04T16:31:19.173Z,1.93
2023-01-04T16:33:49.395Z,2.40
2023-01-04T16:36:17.189Z,2.53
2023-01-04T16:38:46.230Z,1.70
2023-01-04T16:41:17.581Z,2.13
2023-01-04T16:43:46.913Z,1.73
2023-01-04T16:46:20.078Z,2.00
2023-01-04T16:48:49.027Z,1.90
2023-01-04T16:51:17.293Z,2.77
2023-01-04T16:53:45.351Z,2.20
2023-01-04T16:56:16.359Z,2.23
2023-01-04T16:58:44.912Z,2.60
2023-01-04T17:01:15.070Z,2.43
2023-01-04T17:03:43.595Z,1.83
2023-01-04T17:06:13.749Z,2.10
2023-01-04T17:08:41.303Z,2.30
2023-01-04T17:11:50.798Z,1.70
2023-01-04T17:14:00.470Z,2.37
2023-01-04T17:16:34.502Z,1.80
2023-01-04T17:19:02.440Z,2.30
2023-01-04T17:21:34.375Z,2.43
2023-01-04T17:24:03.106Z,3.17
2023-01-04T17:26:32.362Z,2.43
2023-01-04T17:29:02.511Z,1.80
2023-01-04T17:31:32.390Z,2.40
2023-01-04T17:34:00.047Z,2.10
2023-01-04T17:36:27.530Z,2.77
2023-01-04T17:38:55.299Z,2.20
2023-01-04T17:41:24.532Z,2.63
2023-01-04T17:43:54.089Z,2.77
2023-01-04T17:46:24.653Z,2.77
2023-01-04T17:49:17.748Z,2.30
2023-01-04T17:51:41.071Z,1.70
2023-01-04T17:54:10.818Z,2.97
2023-01-04T17:56:38.305Z,2.50
2023-01-04T17:59:07.554Z,1.93
2023-01-04T18:01:36.919Z,1.60
2023-01-04T18:04:04.864Z,1.57
2023-01-04T18:06:34.800Z,2.13
2023-01-04T18:09:03.757Z,1.83
2023-01-04T18:11:31.381Z,1.80
2023-01-04T18:13:59.731Z,3.20
2023-01-04T18:16:30.053Z,3.60
2023-01-04T18:19:00.169Z,3.00
2023-01-04T18:21:30.645Z,2.97
2023-01-04T18:27:19.947Z,2.60
2023-01-04T18:29:35.178Z,1.90
2023-01-04T18:32:02.792Z,2.60
2023-01-04T18:34:31.819Z,2.60
2023-01-04T18:36:59.273Z,2.30
2023-01-04T18:39:26.750Z,2.37
2023-01-04T18:41:54.204Z,2.07
2023-01-04T18:44:32.893Z,2.70
2023-01-04T18:47:01.818Z,2.17
2023-01-04T18:49:32.128Z,2.00
2023-01-04T18:51:59.594Z,2.17
2023-01-04T18:54:27.176Z,2.30
2023-01-04T18:57:00.661Z,2.73
2023-01-04T18:59:29.243Z,2.50
2023-01-04T19:02:00.674Z,1.53
2023-01-04T19:04:29.047Z,2.50
2023-01-04T19:06:58.067Z,1.97
2023-01-04T19:09:25.660Z,2.03
2023-01-04T19:11:53.459Z,1.87
2023-01-04T19:14:21.151Z,2.27
2023-01-04T19:16:48.970Z,2.93
2023-01-04T19:19:16.527Z,2.17
2023-01-04T19:21:43.949Z,2.07
2023-01-04T19:24:12.992Z,2.40
2023-01-04T19:26:40.470Z,2.37
2023-01-04T19:29:08.787Z,2.63
2023-01-04T19:31:36.451Z,2.40
2023-01-04T19:34:04.361Z,2.00
2023-01-04T19:36:31.827Z,2.83
2023-01-04T19:38:59.437Z,2.40
2023-01-04T19:41:34.293Z,2.17
2023-01-04T19:44:02.324Z,3.33
2023-01-04T19:46:30.426Z,2.10
2023-01-04T19:48:58.682Z,2.93
2023-01-04T19:51:28.054Z,2.07
2023-01-04T19:53:55.722Z,2.37
2023-01-04T19:56:23.364Z,2.50
2023-01-04T19:58:52.180Z,2.40
2023-01-04T20:01:21.774Z,2.43
2023-01-04T20:03:49.697Z,2.10
2023-01-04T20:06:18.279Z,2.40
2023-01-04T20:08:45.796Z,2.90
2023-01-04T20:11:13.830Z,2.23
2023-01-04T20:13:41.504Z,2.10
2023-01-04T20:16:11.015Z,2.57
2023-01-04T20:18:39.117Z,2.40
2023-01-04T20:21:11.536Z,2.47
2023-01-04T20:23:39.670Z,2.50
2023-01-04T20:26:11.407Z,2.73
2023-01-04T20:28:39.540Z,2.50
2023-01-04T20:31:09.655Z,3.03
2023-01-04T20:33:38.902Z,2.60
2023-01-04T20:36:07.531Z,3.40
2023-01-04T20:38:40.092Z,2.37
2023-01-04T20:41:11.477Z,1.90
2023-01-04T20:43:38.183Z,2.60
2023-01-04T20:46:17.140Z,2.77
2023-01-04T20:48:47.223Z,2.87
2023-01-04T20:51:17.061Z,2.90
2023-01-04T20:53:45.020Z,2.33
2023-01-04T20:56:14.951Z,2.60
2023-01-04T20:58:42.968Z,2.20
2023-01-04T21:01:10.542Z,2.13
2023-01-04T21:03:38.740Z,3.20
2023-01-04T21:06:10.861Z,3.17
2023-01-04T21:08:40.496Z,3.23
2023-01-04T21:11:08.639Z,2.33
2023-01-04T21:13:36.208Z,2.80
2023-01-04T21:16:04.478Z,2.40
2023-01-04T21:18:32.320Z,2.03
2023-01-04T21:20:59.932Z,2.67
2023-01-04T21:23:28.841Z,2.33
2023-01-04T21:25:57.048Z,2.47
2023-01-04T21:28:24.532Z,2.60
2023-01-04T21:30:52.058Z,3.17
2023-01-04T21:33:19.565Z,2.30
2023-01-04T21:35:47.043Z,2.87
2023-01-04T21:38:14.531Z,2.50
2023-01-04T21:40:43.645Z,2.10
2023-01-04T21:43:16.855Z,2.00
2023-01-04T21:45:44.577Z,2.20
2023-01-04T21:48:12.210Z,2.10
2023-01-04T21:50:39.818Z,1.97
2023-01-04T21:53:07.371Z,2.20
2023-01-04T21:55:35.356Z,2.50
2023-01-04T21:58:04.419Z,2.30
2023-01-04T22:00:34.998Z,1.97
2023-01-04T22:03:02.586Z,2.17
2023-01-04T22:05:31.741Z,1.90
2023-01-04T22:07:59.208Z,1.90
2023-01-04T22:10:26.688Z,2.33
2023-01-04T22:12:54.278Z,1.83
2023-01-04T22:15:24.039Z,2.03
2023-01-04T22:17:52.089Z,2.17
2023-01-04T22:20:19.856Z,2.13
2023-01-04T22:22:47.422Z,2.10
2023-01-04T22:25:17.460Z,2.03
2023-01-04T22:27:45.439Z,1.50
2023-01-04T22:30:13.585Z,1.90
2023-01-04T22:32:42.656Z,2.00
2023-01-04T22:35:12.954Z,1.20
2023-01-04T22:37:40.753Z,1.20
2023-01-04T22:40:09.756Z,1.63
2023-01-04T22:42:40.340Z,1.77
2023-01-04T22:45:13.186Z,1.77
2023-01-04T22:47:42.713Z,0.90
2023-01-04T22:50:11.599Z,1.13
2023-01-04T22:52:39.262Z,1.20
2023-01-04T22:55:07.644Z,1.20
2023-01-04T22:57:35.320Z,1.17
2023-01-04T23:00:03.987Z,1.70
2023-01-04T23:02:31.663Z,1.47
2023-01-04T23:05:00.645Z,1.47
2023-01-04T23:07:28.485Z,2.47
2023-01-04T23:09:56.209Z,2.23
2023-01-04T23:12:23.786Z,2.20
2023-01-04T23:14:51.285Z,2.00
2023-01-04T23:17:18.910Z,2.53
2023-01-04T23:19:47.095Z,2.40
2023-01-04T23:22:19.148Z,3.03
2023-01-04T23:24:46.719Z,2.27
2023-01-04T23:27:15.730Z,2.27
2023-01-04T23:29:44.198Z,2.00
2023-01-04T23:32:14.685Z,2.03
2023-01-04T23:34:43.650Z,2.20
2023-01-04T23:37:11.171Z,2.50
2023-01-04T23:39:41.986Z,2.23
2023-01-04T23:42:12.686Z,2.17
2023-01-04T23:44:40.490Z,1.50
2023-01-04T23:47:08.457Z,2.30
2023-01-04T23:49:41.468Z,1.97
2023-01-04T23:52:09.072Z,2.93
2023-01-04T23:54:36.808Z,2.23
2023-01-04T23:57:06.152Z,1.60
2023-01-04T23:59:33.931Z,2.97
